createdAt,value
2018-09-13T00:00:18.215Z,13.88
2018-09-13T00:02:48.921Z,17.12
2018-09-13T00:05:19.612Z,16.40
2018-09-13T00:07:50.292Z,14.47
2018-09-13T00:10:20.972Z,15.00
2018-09-13T00:12:51.684Z,16.32
2018-09-13T00:15:22.369Z,15.03
2018-09-13T00:17:53.089Z,16.55
2018-09-13T00:20:23.772Z,15.13
2018-09-13T00:22:54.498Z,15.00
2018-09-13T00:25:25.202Z,13.58
2018-09-13T00:27:55.895Z,16.45
2018-09-13T00:30:26.564Z,13.38
2018-09-13T00:32:57.399Z,15.15
2018-09-13T00:35:28.097Z,14.98
2018-09-13T00:37:59.057Z,13.43
2018-09-13T00:40:29.788Z,15.80
2018-09-13T00:43:00.520Z,16.50
2018-09-13T00:45:31.216Z,12.80
2018-09-13T00:48:01.890Z,15.30
2018-09-13T00:50:32.583Z,16.52
2018-09-13T00:53:03.286Z,15.40
2018-09-13T00:55:33.972Z,15.93
2018-09-13T00:58:04.659Z,15.32
2018-09-13T01:00:35.370Z,12.07
2018-09-13T01:03:06.293Z,15.15
2018-09-13T01:05:37.049Z,14.30
2018-09-13T01:08:07.763Z,15.80
2018-09-13T01:10:38.432Z,14.83
2018-09-13T01:13:09.151Z,13.85
2018-09-13T01:15:39.832Z,13.90
2018-09-13T01:18:10.529Z,14.03
2018-09-13T01:20:41.236Z,14.18
2018-09-13T01:23:11.976Z,14.78
2018-09-13T01:25:42.665Z,14.10
2018-09-13T01:28:13.366Z,11.83
2018-09-13T01:30:44.032Z,12.25
2018-09-13T01:33:14.741Z,14.00
2018-09-13T01:35:45.441Z,14.65
2018-09-13T01:38:16.137Z,12.50
2018-09-13T01:40:47.188Z,12.15
2018-09-13T01:43:17.861Z,12.10
2018-09-13T01:45:48.578Z,10.75
2018-09-13T01:48:19.248Z,12.37
2018-09-13T01:50:49.944Z,12.98
2018-09-13T01:53:20.600Z,11.45
2018-09-13T01:55:51.311Z,13.03
2018-09-13T01:58:22.041Z,13.20
2018-09-13T02:00:52.748Z,14.28
2018-09-13T02:03:23.684Z,13.30
2018-09-13T02:05:54.379Z,12.65
2018-09-13T02:08:25.161Z,12.10
2018-09-13T02:13:32.928Z,12.90
2018-09-13T02:16:03.624Z,12.63
2018-09-13T02:18:34.680Z,13.75
2018-09-13T02:21:05.394Z,13.22
2018-09-13T02:23:36.136Z,12.82
2018-09-13T02:26:06.832Z,12.35
2018-09-13T02:28:37.565Z,14.70
2018-09-13T02:31:08.240Z,13.85
2018-09-13T02:33:38.938Z,13.03
2018-09-13T02:36:09.616Z,17.50
2018-09-13T02:38:40.312Z,13.88
2018-09-13T02:41:11.036Z,16.12
2018-09-13T02:43:41.723Z,15.70
2018-09-13T02:46:12.757Z,13.13
2018-09-13T02:48:43.776Z,14.00
2018-09-13T02:51:14.448Z,12.78
2018-09-13T02:53:45.144Z,12.28
2018-09-13T02:56:15.817Z,19.20
2018-09-13T02:58:46.520Z,13.28
2018-09-13T03:01:17.206Z,15.55
2018-09-13T03:03:47.907Z,13.05
2018-09-13T03:06:18.604Z,15.60
2018-09-13T03:08:49.300Z,14.90
2018-09-13T03:11:19.980Z,15.58
2018-09-13T03:13:50.686Z,14.83
2018-09-13T03:16:21.392Z,18.40
2018-09-13T03:18:52.097Z,14.95
2018-09-13T03:21:22.768Z,17.12
2018-09-13T03:23:53.476Z,14.73
2018-09-13T03:26:24.197Z,16.15
2018-09-13T03:28:54.977Z,16.80
2018-09-13T03:31:25.619Z,17.92
2018-09-13T03:33:56.360Z,17.35
2018-09-13T03:36:27.040Z,19.00
2018-09-13T03:38:58.100Z,17.35
2018-09-13T03:41:28.792Z,15.85
2018-09-13T03:43:59.505Z,21.62
2018-09-13T03:46:30.186Z,16.70
2018-09-13T03:49:01.004Z,16.77
2018-09-13T03:51:31.680Z,20.77
2018-09-13T03:54:02.380Z,18.48
2018-09-13T03:56:33.086Z,19.40
2018-09-13T03:59:04.034Z,17.02
2018-09-13T04:01:34.702Z,18.30
2018-09-13T04:04:05.436Z,16.37
2018-09-13T04:06:36.151Z,17.35
2018-09-13T04:09:09.125Z,20.88
2018-09-13T04:11:40.301Z,18.95
2018-09-13T04:14:11.033Z,18.02
2018-09-13T04:16:41.967Z,18.37
2018-09-13T04:19:12.648Z,20.72
2018-09-13T04:21:43.362Z,18.50
2018-09-13T04:24:14.037Z,18.42
2018-09-13T04:26:45.081Z,22.02
2018-09-13T04:29:15.795Z,22.35
2018-09-13T04:31:46.501Z,16.50
2018-09-13T04:34:17.213Z,19.57
2018-09-13T04:36:47.933Z,20.75
2018-09-13T04:39:18.627Z,18.77
2018-09-13T04:41:49.369Z,23.75
2018-09-13T04:44:20.075Z,18.45
2018-09-13T04:46:50.776Z,22.65
2018-09-13T04:49:21.513Z,20.20
2018-09-13T04:51:52.329Z,19.55
2018-09-13T04:54:23.225Z,19.45
2018-09-13T04:56:53.904Z,18.82
2018-09-13T04:59:26.392Z,19.35
2018-09-13T05:01:57.096Z,18.45
2018-09-13T05:04:27.817Z,21.15
2018-09-13T05:06:58.484Z,20.02
2018-09-13T05:09:29.204Z,23.80
2018-09-13T05:11:59.895Z,24.65
2018-09-13T05:14:30.647Z,22.25
2018-09-13T05:17:01.361Z,26.45
2018-09-13T05:19:32.032Z,22.80
2018-09-13T05:22:02.736Z,26.42
2018-09-13T05:24:33.420Z,23.85
2018-09-13T05:27:04.492Z,28.27
2018-09-13T05:29:35.517Z,27.77
2018-09-13T05:32:06.225Z,30.57
2018-09-13T05:34:36.892Z,30.75
2018-09-13T05:37:07.793Z,30.20
2018-09-13T05:39:38.465Z,29.98
2018-09-13T05:42:09.180Z,31.97
2018-09-13T05:44:39.865Z,28.73
2018-09-13T05:47:10.762Z,30.00
2018-09-13T05:49:41.461Z,31.05
2018-09-13T05:52:12.324Z,28.80
2018-09-13T05:54:43.029Z,28.62
2018-09-13T05:57:13.701Z,25.90
2018-09-13T05:59:44.400Z,30.30
2018-09-13T06:02:15.109Z,30.82
2018-09-13T06:04:45.801Z,29.07
2018-09-13T06:07:16.543Z,26.90
2018-09-13T06:09:47.253Z,31.27
2018-09-13T06:12:17.928Z,29.40
2018-09-13T06:14:48.649Z,33.25
2018-09-13T06:17:19.334Z,27.05
2018-09-13T06:19:50.073Z,29.75
2018-09-13T06:22:20.905Z,26.12
2018-09-13T06:24:51.596Z,25.68
2018-09-13T06:27:22.263Z,25.65
2018-09-13T06:29:53.688Z,31.50
2018-09-13T06:32:24.356Z,26.30
2018-09-13T06:34:55.072Z,26.45
2018-09-13T06:37:25.809Z,26.97
2018-09-13T06:39:56.486Z,23.45
2018-09-13T06:42:27.244Z,26.70
2018-09-13T06:44:58.078Z,22.48
2018-09-13T06:47:28.797Z,21.50
2018-09-13T06:49:59.478Z,21.73
2018-09-13T06:52:30.184Z,22.77
2018-09-13T06:55:00.863Z,22.25
2018-09-13T06:57:31.609Z,22.70
2018-09-13T07:00:02.289Z,21.35
2018-09-13T07:02:33.091Z,25.57
2018-09-13T07:05:04.300Z,20.27
2018-09-13T07:07:35.051Z,18.60
2018-09-13T07:10:05.761Z,21.45
2018-09-13T07:12:36.469Z,22.25
2018-09-13T07:15:07.194Z,22.82
2018-09-13T07:17:37.876Z,23.22
2018-09-13T07:20:08.633Z,21.05
2018-09-13T07:22:39.323Z,21.10
2018-09-13T07:25:10.037Z,22.75
2018-09-13T07:27:40.748Z,19.55
2018-09-13T07:30:11.472Z,22.75
2018-09-13T07:32:42.162Z,21.50
2018-09-13T07:35:12.868Z,23.87
2018-09-13T07:37:43.592Z,23.02
2018-09-13T07:40:14.308Z,21.90
2018-09-13T07:42:45.014Z,23.15
2018-09-13T07:45:15.945Z,20.60
2018-09-13T07:47:46.629Z,21.42
2018-09-13T07:50:17.357Z,22.37
2018-09-13T07:52:48.028Z,23.73
2018-09-13T07:55:18.757Z,24.75
2018-09-13T07:57:49.436Z,21.40
2018-09-13T08:00:20.131Z,23.35
2018-09-13T08:02:50.872Z,23.10
2018-09-13T08:05:21.556Z,20.92
2018-09-13T08:07:52.270Z,24.90
2018-09-13T08:10:22.940Z,19.75
2018-09-13T08:12:53.677Z,19.73
2018-09-13T08:15:24.347Z,23.73
2018-09-13T08:17:55.048Z,20.12
2018-09-13T08:20:25.751Z,20.43
2018-09-13T08:22:56.445Z,22.65
2018-09-13T08:25:27.155Z,24.10
2018-09-13T08:27:57.827Z,25.23
2018-09-13T08:30:28.557Z,22.20
2018-09-13T08:32:59.232Z,21.90
2018-09-13T08:35:29.957Z,19.90
2018-09-13T08:38:00.673Z,23.98
2018-09-13T08:40:31.438Z,25.65
2018-09-13T08:43:02.151Z,23.35
2018-09-13T08:45:33.451Z,23.60
2018-09-13T08:48:04.261Z,22.67
2018-09-13T08:50:34.973Z,22.62
2018-09-13T08:53:05.672Z,26.20
2018-09-13T08:55:36.385Z,25.57
2018-09-13T08:58:07.121Z,25.75
2018-09-13T09:00:37.872Z,23.73
2018-09-13T09:03:08.734Z,26.35
2018-09-13T09:05:39.440Z,24.07
2018-09-13T09:08:10.144Z,24.63
2018-09-13T09:10:41.032Z,23.55
2018-09-13T09:13:11.878Z,22.27
2018-09-13T09:15:42.583Z,25.05
2018-09-13T09:18:13.309Z,26.17
2018-09-13T09:20:44.331Z,31.25
2018-09-13T09:23:15.045Z,26.02
2018-09-13T09:25:45.722Z,26.05
2018-09-13T09:28:16.432Z,30.90
2018-09-13T09:30:47.104Z,29.02
2018-09-13T09:33:17.804Z,27.45
2018-09-13T09:35:48.516Z,29.02
2018-09-13T09:38:19.232Z,24.60
2018-09-13T09:40:49.910Z,23.60
2018-09-13T09:43:20.607Z,27.27
2018-09-13T09:45:51.524Z,29.48
2018-09-13T09:48:22.192Z,27.58
2018-09-13T09:50:52.916Z,23.70
2018-09-13T09:53:23.608Z,26.37
2018-09-13T09:55:54.329Z,21.45
2018-09-13T09:58:25.019Z,22.67
2018-09-13T10:01:01.097Z,22.60
2018-09-13T10:03:31.860Z,24.50
2018-09-13T10:06:02.581Z,24.40
2018-09-13T10:08:33.287Z,24.40
2018-09-13T10:11:03.994Z,24.00
2018-09-13T10:13:34.705Z,24.47
2018-09-13T10:16:10.858Z,22.02
2018-09-13T10:18:43.173Z,21.77
2018-09-13T10:21:19.401Z,19.45
2018-09-13T10:23:55.701Z,21.77
2018-09-13T10:26:31.889Z,18.52
2018-09-13T10:29:08.081Z,23.65
2018-09-13T10:31:44.326Z,20.95
2018-09-13T10:34:20.385Z,20.82
2018-09-13T10:36:56.553Z,26.05
2018-09-13T10:39:32.705Z,24.25
2018-09-13T10:42:08.885Z,21.57
2018-09-13T10:44:44.929Z,23.45
2018-09-13T10:47:21.045Z,20.92
2018-09-13T10:49:57.645Z,19.17
2018-09-13T10:52:35.223Z,18.10
2018-09-13T10:55:06.141Z,21.45
2018-09-13T10:57:43.229Z,21.90
2018-09-13T11:00:14.945Z,20.15
2018-09-13T11:02:45.623Z,23.20
2018-09-13T11:05:16.383Z,20.23
2018-09-13T11:07:47.101Z,23.42
2018-09-13T11:10:17.825Z,22.80
2018-09-13T11:12:53.010Z,22.85
2018-09-13T11:15:29.193Z,17.77
2018-09-13T11:17:59.920Z,21.40
2018-09-13T11:20:31.019Z,19.70
2018-09-13T11:23:02.088Z,16.65
2018-09-13T11:25:32.843Z,15.58
2018-09-13T11:28:03.552Z,14.10
2018-09-13T11:30:34.319Z,14.05
2018-09-13T11:33:05.147Z,12.07
2018-09-13T11:35:35.859Z,10.55
2018-09-13T11:38:06.569Z,11.03
2018-09-13T11:40:37.498Z,10.90
2018-09-13T11:43:08.188Z,10.50
2018-09-13T11:45:38.892Z,8.90
2018-09-13T11:48:09.626Z,10.55
2018-09-13T11:50:40.283Z,14.68
2018-09-13T11:53:11.324Z,11.15
2018-09-13T11:55:42.037Z,11.90
2018-09-13T11:58:14.312Z,12.07
2018-09-13T12:00:45.028Z,13.75
2018-09-13T12:03:15.785Z,11.93
2018-09-13T12:05:46.464Z,10.40
2018-09-13T12:08:17.164Z,10.60
2018-09-13T12:10:47.887Z,10.40
2018-09-13T12:13:18.900Z,11.28
2018-09-13T12:15:49.605Z,15.48
2018-09-13T12:18:20.375Z,10.32
2018-09-13T12:20:51.201Z,12.43
2018-09-13T12:23:21.984Z,11.30
2018-09-13T12:25:52.736Z,12.33
2018-09-13T12:28:23.565Z,12.15
2018-09-13T12:30:54.245Z,11.88
2018-09-13T12:33:24.957Z,10.55
2018-09-13T12:35:55.876Z,12.60
2018-09-13T12:38:26.706Z,12.90
2018-09-13T12:40:57.561Z,16.42
2018-09-13T12:43:28.284Z,11.70
2018-09-13T12:45:58.967Z,12.58
2018-09-13T12:48:29.718Z,10.63
2018-09-13T12:51:00.468Z,11.05
2018-09-13T12:53:31.550Z,10.32
2018-09-13T12:56:02.245Z,12.73
2018-09-13T12:58:33.633Z,10.58
2018-09-13T13:01:04.364Z,12.33
2018-09-13T13:03:35.110Z,11.15
2018-09-13T13:06:05.882Z,16.37
2018-09-13T13:08:36.616Z,14.25
2018-09-13T13:11:07.367Z,12.20
2018-09-13T13:13:38.079Z,13.03
2018-09-13T13:16:08.767Z,15.43
2018-09-13T13:18:39.504Z,14.58
2018-09-13T13:21:10.191Z,16.40
2018-09-13T13:23:40.904Z,15.48
2018-09-13T13:26:11.597Z,15.80
2018-09-13T13:28:42.304Z,16.00
2018-09-13T13:31:12.993Z,16.82
2018-09-13T13:33:43.712Z,19.90
2018-09-13T13:36:14.454Z,16.90
2018-09-13T13:38:45.320Z,17.05
2018-09-13T13:41:16.085Z,20.80
2018-09-13T13:43:47.065Z,14.33
2018-09-13T13:46:17.804Z,11.33
2018-09-13T13:48:48.521Z,10.60
2018-09-13T13:51:19.328Z,10.00
2018-09-13T13:53:50.040Z,10.35
2018-09-13T13:56:20.725Z,12.50
2018-09-13T13:58:51.469Z,12.65
2018-09-13T14:01:22.152Z,11.68
2018-09-13T14:03:52.885Z,12.90
2018-09-13T14:06:23.571Z,11.90
2018-09-13T14:08:54.280Z,11.78
2018-09-13T14:11:24.947Z,12.30
2018-09-13T14:13:55.646Z,10.60
2018-09-13T14:16:26.721Z,11.53
2018-09-13T14:18:57.426Z,12.98
2018-09-13T14:21:28.149Z,12.13
2018-09-13T14:23:58.828Z,11.83
2018-09-13T14:26:29.545Z,10.93
2018-09-13T14:29:00.252Z,11.22
2018-09-13T14:31:31.024Z,11.88
2018-09-13T14:34:01.697Z,11.30
2018-09-13T14:36:32.420Z,12.75
2018-09-13T14:39:03.468Z,14.70
2018-09-13T14:41:34.217Z,12.40
2018-09-13T14:44:05.300Z,12.70
2018-09-13T14:46:36.569Z,12.43
2018-09-13T14:49:07.604Z,12.78
2018-09-13T14:51:38.309Z,14.55
2018-09-13T14:54:09.016Z,14.53
2018-09-13T14:56:39.713Z,13.65
2018-09-13T14:59:10.397Z,12.10
2018-09-13T15:01:41.107Z,12.20
2018-09-13T15:04:11.812Z,11.43
2018-09-13T15:06:42.589Z,14.90
2018-09-13T15:09:13.468Z,12.50
2018-09-13T15:11:44.197Z,12.03
2018-09-13T15:14:14.887Z,11.00
2018-09-13T15:16:45.601Z,10.28
2018-09-13T15:19:16.290Z,9.90
2018-09-13T15:21:46.976Z,9.08
2018-09-13T15:24:17.714Z,8.80
2018-09-13T15:26:48.573Z,9.30
2018-09-13T15:29:19.216Z,9.15
2018-09-13T15:31:49.917Z,9.15
2018-09-13T15:34:20.600Z,10.80
2018-09-13T15:36:51.335Z,8.90
2018-09-13T15:39:21.993Z,8.83
2018-09-13T15:41:52.742Z,7.47
2018-09-13T15:44:23.442Z,9.10
2018-09-13T15:46:54.179Z,8.80
2018-09-13T15:49:24.928Z,9.13
2018-09-13T15:51:55.600Z,9.50
2018-09-13T15:54:26.308Z,8.83
2018-09-13T15:56:56.989Z,11.73
2018-09-13T15:59:27.773Z,8.25
2018-09-13T16:01:58.620Z,8.20
2018-09-13T16:04:29.320Z,9.10
2018-09-13T16:07:00.101Z,9.60
2018-09-13T16:09:30.795Z,7.97
2018-09-13T16:12:01.452Z,7.83
2018-09-13T16:14:32.175Z,8.30
2018-09-13T16:17:02.848Z,8.80
2018-09-13T16:19:33.547Z,10.23
2018-09-13T16:22:04.576Z,10.15
2018-09-13T16:24:35.321Z,12.25
2018-09-13T16:27:06.003Z,11.60
2018-09-13T16:29:36.717Z,11.03
2018-09-13T16:32:07.421Z,9.58
2018-09-13T16:34:44.755Z,9.43
2018-09-13T16:37:15.652Z,10.35
2018-09-13T16:39:51.828Z,10.25
2018-09-13T16:42:28.023Z,9.68
2018-09-13T16:44:58.929Z,10.20
2018-09-13T16:47:35.120Z,9.88
2018-09-13T16:50:05.962Z,9.98
2018-09-13T16:52:36.642Z,10.93
2018-09-13T16:55:07.688Z,9.88
2018-09-13T16:57:38.645Z,9.88
2018-09-13T17:00:10.034Z,10.43
2018-09-13T17:02:40.737Z,11.85
2018-09-13T17:05:11.510Z,10.23
2018-09-13T17:07:42.231Z,8.68
2018-09-13T17:10:13.077Z,10.00
2018-09-13T17:12:43.948Z,10.08
2018-09-13T17:15:16.968Z,10.45
2018-09-13T17:17:47.673Z,10.43
2018-09-13T17:20:18.398Z,10.98
2018-09-13T17:22:49.288Z,10.43
2018-09-13T17:25:19.960Z,9.55
2018-09-13T17:27:50.659Z,9.88
2018-09-13T17:30:21.550Z,12.45
2018-09-13T17:32:52.248Z,10.98
2018-09-13T17:35:22.973Z,10.43
2018-09-13T17:37:53.673Z,10.08
2018-09-13T17:40:25.350Z,10.43
2018-09-13T17:42:56.241Z,9.65
2018-09-13T17:45:26.953Z,9.38
2018-09-13T17:47:57.633Z,10.48
2018-09-13T17:50:29.051Z,10.13
2018-09-13T17:52:59.787Z,11.57
2018-09-13T17:55:32.511Z,9.78
2018-09-13T17:58:04.304Z,11.38
2018-09-13T18:00:35.084Z,11.50
2018-09-13T18:03:06.216Z,11.25
2018-09-13T18:05:36.965Z,10.82
2018-09-13T18:08:07.662Z,11.12
2018-09-13T18:10:38.365Z,9.00
2018-09-13T18:13:09.047Z,9.93
2018-09-13T18:15:39.744Z,10.25
2018-09-13T18:18:10.469Z,10.20
2018-09-13T18:20:41.969Z,11.08
2018-09-13T18:23:13.716Z,9.98
2018-09-13T18:25:44.608Z,10.68
2018-09-13T18:28:16.289Z,10.48
2018-09-13T18:30:47.809Z,11.50
2018-09-13T18:33:18.663Z,8.58
2018-09-13T18:35:49.485Z,10.45
2018-09-13T18:38:20.188Z,10.05
2018-09-13T18:40:50.870Z,11.45
2018-09-13T18:43:21.592Z,11.20
2018-09-13T18:45:52.299Z,10.03
2018-09-13T18:48:23.069Z,12.45
2018-09-13T18:50:53.737Z,9.68
2018-09-13T18:53:24.468Z,10.72
2018-09-13T18:55:55.177Z,9.68
2018-09-13T18:58:25.949Z,9.60
2018-09-13T19:00:56.804Z,10.40
2018-09-13T19:03:27.493Z,9.68
2018-09-13T19:05:58.205Z,10.88
2018-09-13T19:08:28.884Z,10.48
2018-09-13T19:10:59.649Z,10.68
2018-09-13T19:13:30.508Z,12.58
2018-09-13T19:16:01.248Z,10.85
2018-09-13T19:18:32.258Z,10.65
2018-09-13T19:21:02.950Z,10.48
2018-09-13T19:23:33.649Z,14.98
2018-09-13T19:26:04.357Z,10.50
2018-09-13T19:28:35.164Z,9.75
2018-09-13T19:31:06.549Z,9.83
2018-09-13T19:33:37.688Z,9.70
2018-09-13T19:36:08.361Z,10.55
2018-09-13T19:38:39.068Z,10.28
2018-09-13T19:41:10.109Z,10.93
2018-09-13T19:43:40.859Z,10.38
2018-09-13T19:46:11.560Z,10.48
2018-09-13T19:48:42.243Z,12.00
2018-09-13T19:51:12.972Z,10.63
2018-09-13T19:53:43.824Z,11.55
2018-09-13T19:56:14.529Z,11.15
2018-09-13T19:58:45.191Z,10.28
2018-09-13T20:01:15.896Z,10.48
2018-09-13T20:03:46.649Z,10.85
2018-09-13T20:06:17.399Z,11.90
2018-09-13T20:08:48.628Z,11.18
2018-09-13T20:11:19.469Z,11.95
2018-09-13T20:13:50.159Z,13.03
2018-09-13T20:16:20.904Z,11.48
2018-09-13T20:18:51.589Z,11.35
2018-09-13T20:21:22.320Z,11.97
2018-09-13T20:23:53.033Z,11.75
2018-09-13T20:26:23.747Z,11.60
2018-09-13T20:28:54.580Z,10.78
2018-09-13T20:31:25.328Z,10.85
2018-09-13T20:33:56.032Z,12.80
2018-09-13T20:36:26.710Z,12.78
2018-09-13T20:38:57.695Z,11.05
2018-09-13T20:41:28.553Z,11.63
2018-09-13T20:43:59.361Z,12.70
2018-09-13T20:46:30.034Z,10.32
2018-09-13T20:49:00.908Z,12.90
2018-09-13T20:51:31.577Z,12.70
2018-09-13T20:54:02.285Z,13.45
2018-09-13T20:56:32.987Z,10.28
2018-09-13T20:59:03.673Z,10.40
2018-09-13T21:01:34.388Z,11.80
2018-09-13T21:04:05.465Z,12.20
2018-09-13T21:06:36.208Z,11.95
2018-09-13T21:09:08.829Z,12.40
2018-09-13T21:11:39.799Z,11.57
2018-09-13T21:14:10.507Z,13.08
2018-09-13T21:16:41.203Z,13.53
2018-09-13T21:19:11.925Z,14.90
2018-09-13T21:21:42.638Z,11.25
2018-09-13T21:24:13.331Z,10.82
2018-09-13T21:26:44.568Z,12.13
2018-09-13T21:29:15.247Z,11.60
2018-09-13T21:31:46.321Z,12.10
2018-09-13T21:34:17.013Z,12.07
2018-09-13T21:36:47.719Z,11.33
2018-09-13T21:39:18.433Z,13.20
2018-09-13T21:41:49.104Z,13.68
2018-09-13T21:44:19.904Z,11.70
2018-09-13T21:46:50.732Z,15.13
2018-09-13T21:49:21.432Z,13.48
2018-09-13T21:51:52.132Z,14.23
2018-09-13T21:54:22.832Z,16.20
2018-09-13T21:56:53.517Z,13.85
2018-09-13T21:59:24.230Z,14.98
2018-09-13T22:01:54.908Z,14.98
2018-09-13T22:04:25.785Z,12.93
2018-09-13T22:06:56.465Z,13.90
2018-09-13T22:09:27.157Z,12.98
2018-09-13T22:11:57.828Z,18.32
2018-09-13T22:14:28.577Z,14.30
2018-09-13T22:16:59.265Z,15.13
2018-09-13T22:19:29.972Z,15.78
2018-09-13T22:22:00.713Z,14.25
2018-09-13T22:24:31.617Z,16.60
2018-09-13T22:27:02.413Z,15.10
2018-09-13T22:29:33.101Z,14.75
2018-09-13T22:32:03.813Z,15.20
2018-09-13T22:34:34.517Z,14.63
2018-09-13T22:37:05.593Z,14.18
2018-09-13T22:39:36.272Z,14.83
2018-09-13T22:42:07.178Z,12.70
2018-09-13T22:44:41.017Z,16.35
2018-09-13T22:47:12.295Z,12.13
2018-09-13T22:49:42.957Z,13.08
2018-09-13T22:52:13.693Z,15.20
2018-09-13T22:54:44.397Z,14.03
2018-09-13T22:57:15.096Z,13.45
2018-09-13T22:59:45.793Z,14.98
2018-09-13T23:02:16.505Z,15.32
2018-09-13T23:04:47.217Z,14.43
2018-09-13T23:07:17.915Z,16.12
2018-09-13T23:09:48.592Z,16.00
2018-09-13T23:12:19.298Z,17.02
2018-09-13T23:14:50.097Z,16.02
2018-09-13T23:17:20.812Z,15.43
2018-09-13T23:19:51.780Z,15.45
2018-09-13T23:22:22.466Z,13.53
2018-09-13T23:24:53.148Z,12.18
2018-09-13T23:27:23.821Z,13.28
2018-09-13T23:29:54.536Z,12.95
2018-09-13T23:32:25.559Z,13.62
2018-09-13T23:34:56.244Z,12.25
2018-09-13T23:37:26.965Z,14.93
2018-09-13T23:39:57.818Z,14.47
2018-09-13T23:42:28.556Z,17.25
2018-09-13T23:44:59.291Z,17.45
2018-09-13T23:47:30.369Z,16.70
2018-09-13T23:50:01.053Z,17.07
2018-09-13T23:52:31.748Z,19.02
2018-09-13T23:55:02.456Z,17.77
2018-09-13T23:57:33.135Z,18.60
